sensor_id;sensor_type;location;lat;lon;timestamp;P1;durP1;ratioP1;P2;durP2;ratioP2
60243;SDS011;46106;51.468;5.814;2022-08-19T00:00:20;47.00;;;33.58;;
60243;SDS011;46106;51.468;5.814;2022-08-19T00:02:46;48.85;;;33.75;;
60243;SDS011;46106;51.468;5.814;2022-08-19T00:05:13;48.95;;;33.03;;
60243;SDS011;46106;51.468;5.814;2022-08-19T00:07:39;52.08;;;33.50;;
60243;SDS011;46106;51.468;5.814;2022-08-19T00:10:06;57.83;;;35.65;;
60243;SDS011;46106;51.468;5.814;2022-08-19T00:12:33;53.00;;;34.05;;
60243;SDS011;46106;51.468;5.814;2022-08-19T00:14:59;48.28;;;33.80;;
60243;SDS011;46106;51.468;5.814;2022-08-19T00:17:26;56.25;;;35.97;;
60243;SDS011;46106;51.468;5.814;2022-08-19T00:19:51;54.83;;;38.10;;
60243;SDS011;46106;51.468;5.814;2022-08-19T00:22:17;57.88;;;35.20;;
60243;SDS011;46106;51.468;5.814;2022-08-19T00:24:44;48.28;;;31.92;;
60243;SDS011;46106;51.468;5.814;2022-08-19T00:27:10;44.03;;;30.65;;
60243;SDS011;46106;51.468;5.814;2022-08-19T00:29:37;51.95;;;32.78;;
60243;SDS011;46106;51.468;5.814;2022-08-19T00:32:05;49.58;;;32.15;;
60243;SDS011;46106;51.468;5.814;2022-08-19T00:34:31;50.85;;;34.85;;
60243;SDS011;46106;51.468;5.814;2022-08-19T00:36:57;50.28;;;34.75;;
60243;SDS011;46106;51.468;5.814;2022-08-19T00:39:23;53.00;;;35.33;;
60243;SDS011;46106;51.468;5.814;2022-08-19T00:41:49;49.25;;;35.33;;
60243;SDS011;46106;51.468;5.814;2022-08-19T00:44:22;55.90;;;35.22;;
60243;SDS011;46106;51.468;5.814;2022-08-19T00:46:52;51.95;;;35.40;;
60243;SDS011;46106;51.468;5.814;2022-08-19T00:51:55;50.10;;;34.83;;
60243;SDS011;46106;51.468;5.814;2022-08-19T00:54:25;47.70;;;33.70;;
60243;SDS011;46106;51.468;5.814;2022-08-19T00:56:51;58.08;;;38.25;;
60243;SDS011;46106;51.468;5.814;2022-08-19T00:59:19;50.45;;;35.08;;
60243;SDS011;46106;51.468;5.814;2022-08-19T01:01:45;43.95;;;31.20;;
60243;SDS011;46106;51.468;5.814;2022-08-19T01:04:12;46.55;;;32.70;;
60243;SDS011;46106;51.468;5.814;2022-08-19T01:06:39;39.92;;;29.27;;
60243;SDS011;46106;51.468;5.814;2022-08-19T01:09:06;42.30;;;30.30;;
60243;SDS011;46106;51.468;5.814;2022-08-19T01:11:35;46.08;;;30.58;;
60243;SDS011;46106;51.468;5.814;2022-08-19T01:14:04;43.08;;;29.42;;
60243;SDS011;46106;51.468;5.814;2022-08-19T01:16:31;37.80;;;26.48;;
60243;SDS011;46106;51.468;5.814;2022-08-19T01:18:59;41.33;;;29.10;;
60243;SDS011;46106;51.468;5.814;2022-08-19T01:21:47;44.70;;;31.15;;
60243;SDS011;46106;51.468;5.814;2022-08-19T01:24:21;41.50;;;29.45;;
60243;SDS011;46106;51.468;5.814;2022-08-19T01:26:49;45.40;;;32.03;;
60243;SDS011;46106;51.468;5.814;2022-08-19T01:29:15;46.80;;;32.20;;
60243;SDS011;46106;51.468;5.814;2022-08-19T01:31:42;43.97;;;32.00;;
60243;SDS011;46106;51.468;5.814;2022-08-19T01:34:07;42.67;;;30.48;;
60243;SDS011;46106;51.468;5.814;2022-08-19T01:36:35;42.08;;;30.27;;
60243;SDS011;46106;51.468;5.814;2022-08-19T01:39:08;48.28;;;30.80;;
60243;SDS011;46106;51.468;5.814;2022-08-19T01:41:37;51.53;;;30.85;;
60243;SDS011;46106;51.468;5.814;2022-08-19T01:44:04;47.03;;;31.85;;
60243;SDS011;46106;51.468;5.814;2022-08-19T01:46:31;48.45;;;31.25;;
60243;SDS011;46106;51.468;5.814;2022-08-19T01:48:58;48.55;;;33.33;;
60243;SDS011;46106;51.468;5.814;2022-08-19T01:51:26;48.95;;;34.33;;
60243;SDS011;46106;51.468;5.814;2022-08-19T01:53:52;53.78;;;35.65;;
60243;SDS011;46106;51.468;5.814;2022-08-19T01:56:19;57.78;;;35.35;;
60243;SDS011;46106;51.468;5.814;2022-08-19T01:58:49;53.25;;;34.15;;
60243;SDS011;46106;51.468;5.814;2022-08-19T02:01:19;55.15;;;36.40;;
60243;SDS011;46106;51.468;5.814;2022-08-19T02:03:45;60.38;;;37.85;;
60243;SDS011;46106;51.468;5.814;2022-08-19T02:06:14;54.25;;;36.30;;
60243;SDS011;46106;51.468;5.814;2022-08-19T02:08:43;57.78;;;36.97;;
60243;SDS011;46106;51.468;5.814;2022-08-19T02:11:17;56.75;;;36.13;;
60243;SDS011;46106;51.468;5.814;2022-08-19T02:13:45;65.40;;;40.42;;
60243;SDS011;46106;51.468;5.814;2022-08-19T02:16:14;65.85;;;39.85;;
60243;SDS011;46106;51.468;5.814;2022-08-19T02:18:41;62.08;;;38.83;;
60243;SDS011;46106;51.468;5.814;2022-08-19T02:21:09;65.32;;;38.30;;
60243;SDS011;46106;51.468;5.814;2022-08-19T02:23:44;69.63;;;40.10;;
60243;SDS011;46106;51.468;5.814;2022-08-19T02:26:11;65.60;;;40.25;;
60243;SDS011;46106;51.468;5.814;2022-08-19T02:28:37;68.13;;;39.72;;
60243;SDS011;46106;51.468;5.814;2022-08-19T02:31:08;65.40;;;37.50;;
60243;SDS011;46106;51.468;5.814;2022-08-19T02:33:42;53.25;;;35.15;;
60243;SDS011;46106;51.468;5.814;2022-08-19T02:36:10;54.47;;;36.50;;
60243;SDS011;46106;51.468;5.814;2022-08-19T02:38:37;57.15;;;38.05;;
60243;SDS011;46106;51.468;5.814;2022-08-19T02:41:05;62.15;;;38.22;;
60243;SDS011;46106;51.468;5.814;2022-08-19T02:43:36;61.88;;;37.63;;
60243;SDS011;46106;51.468;5.814;2022-08-19T02:46:12;54.25;;;35.45;;
60243;SDS011;46106;51.468;5.814;2022-08-19T02:48:46;58.63;;;35.85;;
60243;SDS011;46106;51.468;5.814;2022-08-19T02:51:20;56.65;;;36.17;;
60243;SDS011;46106;51.468;5.814;2022-08-19T02:53:56;44.63;;;30.85;;
60243;SDS011;46106;51.468;5.814;2022-08-19T02:56:22;45.00;;;29.60;;
60243;SDS011;46106;51.468;5.814;2022-08-19T02:58:49;47.65;;;29.17;;
60243;SDS011;46106;51.468;5.814;2022-08-19T03:01:24;52.00;;;31.38;;
60243;SDS011;46106;51.468;5.814;2022-08-19T03:03:58;46.65;;;30.25;;
60243;SDS011;46106;51.468;5.814;2022-08-19T03:06:26;51.83;;;31.98;;
60243;SDS011;46106;51.468;5.814;2022-08-19T03:08:52;58.15;;;31.05;;
60243;SDS011;46106;51.468;5.814;2022-08-19T03:11:25;51.92;;;32.67;;
60243;SDS011;46106;51.468;5.814;2022-08-19T03:13:53;50.40;;;31.45;;
60243;SDS011;46106;51.468;5.814;2022-08-19T03:16:22;47.00;;;32.33;;
60243;SDS011;46106;51.468;5.814;2022-08-19T03:18:51;54.67;;;33.72;;
60243;SDS011;46106;51.468;5.814;2022-08-19T03:21:18;54.30;;;34.83;;
60243;SDS011;46106;51.468;5.814;2022-08-19T03:23:46;64.18;;;35.83;;
60243;SDS011;46106;51.468;5.814;2022-08-19T03:26:13;55.25;;;33.70;;
60243;SDS011;46106;51.468;5.814;2022-08-19T03:28:44;67.15;;;36.85;;
60243;SDS011;46106;51.468;5.814;2022-08-19T03:31:15;67.88;;;38.42;;
60243;SDS011;46106;51.468;5.814;2022-08-19T03:33:42;70.22;;;38.17;;
60243;SDS011;46106;51.468;5.814;2022-08-19T03:36:16;76.38;;;39.75;;
60243;SDS011;46106;51.468;5.814;2022-08-19T03:38:45;63.70;;;37.95;;
60243;SDS011;46106;51.468;5.814;2022-08-19T03:41:18;70.65;;;39.30;;
60243;SDS011;46106;51.468;5.814;2022-08-19T03:43:53;70.18;;;39.90;;
60243;SDS011;46106;51.468;5.814;2022-08-19T03:46:20;81.30;;;41.60;;
60243;SDS011;46106;51.468;5.814;2022-08-19T03:48:51;73.47;;;39.97;;
60243;SDS011;46106;51.468;5.814;2022-08-19T03:53:48;69.95;;;40.33;;
60243;SDS011;46106;51.468;5.814;2022-08-19T03:56:14;71.35;;;40.25;;
60243;SDS011;46106;51.468;5.814;2022-08-19T03:58:40;69.75;;;39.28;;
60243;SDS011;46106;51.468;5.814;2022-08-19T04:01:12;73.03;;;39.72;;
60243;SDS011;46106;51.468;5.814;2022-08-19T04:03:43;65.63;;;37.97;;
60243;SDS011;46106;51.468;5.814;2022-08-19T04:06:18;72.30;;;40.63;;
60243;SDS011;46106;51.468;5.814;2022-08-19T04:08:48;82.10;;;41.45;;
60243;SDS011;46106;51.468;5.814;2022-08-19T04:11:17;66.40;;;38.58;;
60243;SDS011;46106;51.468;5.814;2022-08-19T04:13:52;75.03;;;40.50;;
60243;SDS011;46106;51.468;5.814;2022-08-19T04:16:22;67.00;;;38.67;;
60243;SDS011;46106;51.468;5.814;2022-08-19T04:18:49;74.85;;;40.17;;
60243;SDS011;46106;51.468;5.814;2022-08-19T04:21:25;64.97;;;39.10;;
60243;SDS011;46106;51.468;5.814;2022-08-19T04:23:52;72.38;;;40.95;;
60243;SDS011;46106;51.468;5.814;2022-08-19T04:26:26;72.85;;;40.47;;
60243;SDS011;46106;51.468;5.814;2022-08-19T04:28:57;72.82;;;37.97;;
60243;SDS011;46106;51.468;5.814;2022-08-19T04:31:29;66.20;;;38.95;;
60243;SDS011;46106;51.468;5.814;2022-08-19T04:33:58;65.13;;;38.55;;
60243;SDS011;46106;51.468;5.814;2022-08-19T04:36:28;62.25;;;37.30;;
60243;SDS011;46106;51.468;5.814;2022-08-19T04:38:56;65.93;;;38.70;;
60243;SDS011;46106;51.468;5.814;2022-08-19T04:41:25;72.97;;;40.38;;
60243;SDS011;46106;51.468;5.814;2022-08-19T04:44:10;72.38;;;40.65;;
60243;SDS011;46106;51.468;5.814;2022-08-19T04:46:38;72.05;;;41.20;;
60243;SDS011;46106;51.468;5.814;2022-08-19T04:49:05;64.65;;;38.85;;
60243;SDS011;46106;51.468;5.814;2022-08-19T04:51:32;77.65;;;42.17;;
60243;SDS011;46106;51.468;5.814;2022-08-19T04:53:58;71.13;;;40.63;;
60243;SDS011;46106;51.468;5.814;2022-08-19T04:56:26;67.80;;;39.17;;
60243;SDS011;46106;51.468;5.814;2022-08-19T04:58:53;70.05;;;40.67;;
60243;SDS011;46106;51.468;5.814;2022-08-19T05:01:22;71.20;;;38.97;;
60243;SDS011;46106;51.468;5.814;2022-08-19T05:03:49;74.25;;;42.05;;
60243;SDS011;46106;51.468;5.814;2022-08-19T05:06:16;74.18;;;42.08;;
60243;SDS011;46106;51.468;5.814;2022-08-19T05:08:43;67.07;;;41.35;;
60243;SDS011;46106;51.468;5.814;2022-08-19T05:11:13;79.90;;;43.08;;
60243;SDS011;46106;51.468;5.814;2022-08-19T05:13:43;73.57;;;42.55;;
60243;SDS011;46106;51.468;5.814;2022-08-19T05:16:10;79.15;;;43.10;;
60243;SDS011;46106;51.468;5.814;2022-08-19T05:18:37;83.53;;;45.22;;
60243;SDS011;46106;51.468;5.814;2022-08-19T05:21:22;85.07;;;46.85;;
60243;SDS011;46106;51.468;5.814;2022-08-19T05:24:06;80.70;;;45.75;;
60243;SDS011;46106;51.468;5.814;2022-08-19T05:26:38;82.40;;;46.83;;
60243;SDS011;46106;51.468;5.814;2022-08-19T05:29:04;77.95;;;47.58;;
60243;SDS011;46106;51.468;5.814;2022-08-19T05:31:33;84.10;;;47.53;;
60243;SDS011;46106;51.468;5.814;2022-08-19T05:34:02;87.15;;;48.15;;
60243;SDS011;46106;51.468;5.814;2022-08-19T05:36:32;90.30;;;50.03;;
60243;SDS011;46106;51.468;5.814;2022-08-19T05:39:04;89.65;;;51.45;;
60243;SDS011;46106;51.468;5.814;2022-08-19T05:41:30;83.25;;;48.85;;
60243;SDS011;46106;51.468;5.814;2022-08-19T05:44:03;88.10;;;50.63;;
60243;SDS011;46106;51.468;5.814;2022-08-19T05:46:34;86.05;;;49.08;;
60243;SDS011;46106;51.468;5.814;2022-08-19T05:49:04;88.70;;;50.05;;
60243;SDS011;46106;51.468;5.814;2022-08-19T05:51:35;87.90;;;50.20;;
60243;SDS011;46106;51.468;5.814;2022-08-19T05:54:05;91.80;;;51.60;;
60243;SDS011;46106;51.468;5.814;2022-08-19T05:56:33;91.43;;;50.10;;
60243;SDS011;46106;51.468;5.814;2022-08-19T05:59:04;104.07;;;53.78;;
60243;SDS011;46106;51.468;5.814;2022-08-19T06:01:35;99.80;;;52.08;;
60243;SDS011;46106;51.468;5.814;2022-08-19T06:04:04;105.05;;;52.85;;
60243;SDS011;46106;51.468;5.814;2022-08-19T06:06:33;105.28;;;54.08;;
60243;SDS011;46106;51.468;5.814;2022-08-19T06:09:01;95.25;;;51.10;;
60243;SDS011;46106;51.468;5.814;2022-08-19T06:11:33;99.30;;;52.63;;
60243;SDS011;46106;51.468;5.814;2022-08-19T06:14:14;104.03;;;53.70;;
60243;SDS011;46106;51.468;5.814;2022-08-19T06:16:42;108.72;;;56.47;;
60243;SDS011;46106;51.468;5.814;2022-08-19T06:19:10;104.70;;;52.10;;
60243;SDS011;46106;51.468;5.814;2022-08-19T06:21:41;102.07;;;52.17;;
60243;SDS011;46106;51.468;5.814;2022-08-19T06:24:09;98.32;;;51.58;;
60243;SDS011;46106;51.468;5.814;2022-08-19T06:26:40;95.15;;;51.45;;
60243;SDS011;46106;51.468;5.814;2022-08-19T06:29:08;93.60;;;51.10;;
60243;SDS011;46106;51.468;5.814;2022-08-19T06:31:36;98.25;;;49.83;;
60243;SDS011;46106;51.468;5.814;2022-08-19T06:34:05;95.85;;;49.75;;
60243;SDS011;46106;51.468;5.814;2022-08-19T06:36:36;93.03;;;48.72;;
60243;SDS011;46106;51.468;5.814;2022-08-19T06:39:11;92.53;;;48.45;;
60243;SDS011;46106;51.468;5.814;2022-08-19T06:41:42;102.85;;;50.28;;
60243;SDS011;46106;51.468;5.814;2022-08-19T06:44:10;92.15;;;48.42;;
60243;SDS011;46106;51.468;5.814;2022-08-19T06:46:37;93.28;;;47.38;;
60243;SDS011;46106;51.468;5.814;2022-08-19T06:49:05;95.88;;;49.42;;
60243;SDS011;46106;51.468;5.814;2022-08-19T06:51:37;94.95;;;48.50;;
60243;SDS011;46106;51.468;5.814;2022-08-19T06:54:06;97.43;;;48.17;;
60243;SDS011;46106;51.468;5.814;2022-08-19T06:56:33;89.18;;;47.17;;
60243;SDS011;46106;51.468;5.814;2022-08-19T06:59:07;88.30;;;47.20;;
60243;SDS011;46106;51.468;5.814;2022-08-19T07:01:39;86.50;;;45.88;;
60243;SDS011;46106;51.468;5.814;2022-08-19T07:04:12;91.72;;;46.53;;
60243;SDS011;46106;51.468;5.814;2022-08-19T07:06:39;91.75;;;46.17;;
60243;SDS011;46106;51.468;5.814;2022-08-19T07:09:05;89.45;;;46.47;;
60243;SDS011;46106;51.468;5.814;2022-08-19T07:11:34;88.40;;;44.92;;
60243;SDS011;46106;51.468;5.814;2022-08-19T07:14:02;92.72;;;46.17;;
60243;SDS011;46106;51.468;5.814;2022-08-19T07:16:34;86.15;;;45.95;;
60243;SDS011;46106;51.468;5.814;2022-08-19T07:19:00;85.40;;;43.42;;
60243;SDS011;46106;51.468;5.814;2022-08-19T07:21:26;87.35;;;46.33;;
60243;SDS011;46106;51.468;5.814;2022-08-19T07:23:53;92.05;;;45.35;;
60243;SDS011;46106;51.468;5.814;2022-08-19T07:26:23;83.85;;;43.75;;
60243;SDS011;46106;51.468;5.814;2022-08-19T07:28:53;84.70;;;44.00;;
60243;SDS011;46106;51.468;5.814;2022-08-19T07:31:21;79.00;;;43.70;;
60243;SDS011;46106;51.468;5.814;2022-08-19T07:33:52;84.45;;;43.78;;
60243;SDS011;46106;51.468;5.814;2022-08-19T07:36:22;81.22;;;43.17;;
60243;SDS011;46106;51.468;5.814;2022-08-19T07:38:49;78.97;;;41.35;;
60243;SDS011;46106;51.468;5.814;2022-08-19T07:41:18;88.82;;;44.30;;
60243;SDS011;46106;51.468;5.814;2022-08-19T07:43:51;77.38;;;39.75;;
60243;SDS011;46106;51.468;5.814;2022-08-19T07:46:18;76.75;;;41.72;;
60243;SDS011;46106;51.468;5.814;2022-08-19T07:48:48;80.35;;;41.95;;
60243;SDS011;46106;51.468;5.814;2022-08-19T07:51:17;84.95;;;41.50;;
60243;SDS011;46106;51.468;5.814;2022-08-19T07:53:44;82.20;;;40.88;;
60243;SDS011;46106;51.468;5.814;2022-08-19T07:56:12;79.13;;;39.13;;
60243;SDS011;46106;51.468;5.814;2022-08-19T07:58:39;75.15;;;38.15;;
60243;SDS011;46106;51.468;5.814;2022-08-19T08:01:11;88.33;;;40.83;;
60243;SDS011;46106;51.468;5.814;2022-08-19T08:03:44;73.10;;;37.17;;
60243;SDS011;46106;51.468;5.814;2022-08-19T08:06:29;76.88;;;38.53;;
60243;SDS011;46106;51.468;5.814;2022-08-19T08:09:14;75.07;;;36.65;;
60243;SDS011;46106;51.468;5.814;2022-08-19T08:11:53;81.03;;;35.83;;
60243;SDS011;46106;51.468;5.814;2022-08-19T08:14:29;78.10;;;36.35;;
60243;SDS011;46106;51.468;5.814;2022-08-19T08:16:59;63.17;;;30.75;;
60243;SDS011;46106;51.468;5.814;2022-08-19T08:19:26;67.75;;;32.70;;
60243;SDS011;46106;51.468;5.814;2022-08-19T08:21:53;64.47;;;32.10;;
60243;SDS011;46106;51.468;5.814;2022-08-19T08:24:20;53.75;;;29.38;;
60243;SDS011;46106;51.468;5.814;2022-08-19T08:26:46;60.58;;;27.65;;
60243;SDS011;46106;51.468;5.814;2022-08-19T08:29:13;60.03;;;27.58;;
60243;SDS011;46106;51.468;5.814;2022-08-19T08:31:41;56.83;;;27.27;;
60243;SDS011;46106;51.468;5.814;2022-08-19T08:34:09;62.08;;;28.77;;
60243;SDS011;46106;51.468;5.814;2022-08-19T08:36:40;52.67;;;27.35;;
60243;SDS011;46106;51.468;5.814;2022-08-19T08:39:12;60.45;;;25.63;;
60243;SDS011;46106;51.468;5.814;2022-08-19T08:44:16;52.92;;;25.52;;
60243;SDS011;46106;51.468;5.814;2022-08-19T08:46:47;53.47;;;24.23;;
60243;SDS011;46106;51.468;5.814;2022-08-19T08:51:43;44.58;;;21.70;;
60243;SDS011;46106;51.468;5.814;2022-08-19T08:54:17;39.33;;;20.45;;
60243;SDS011;46106;51.468;5.814;2022-08-19T08:56:45;62.75;;;24.52;;
60243;SDS011;46106;51.468;5.814;2022-08-19T08:59:21;53.50;;;23.48;;
60243;SDS011;46106;51.468;5.814;2022-08-19T09:01:53;64.63;;;24.45;;
60243;SDS011;46106;51.468;5.814;2022-08-19T09:04:18;45.75;;;21.67;;
60243;SDS011;46106;51.468;5.814;2022-08-19T09:06:50;45.15;;;21.67;;
60243;SDS011;46106;51.468;5.814;2022-08-19T09:09:30;39.97;;;21.10;;
60243;SDS011;46106;51.468;5.814;2022-08-19T09:17:31;38.95;;;18.80;;
60243;SDS011;46106;51.468;5.814;2022-08-19T09:20:05;47.63;;;19.15;;
60243;SDS011;46106;51.468;5.814;2022-08-19T09:22:41;36.63;;;19.10;;
60243;SDS011;46106;51.468;5.814;2022-08-19T09:25:10;34.63;;;18.42;;
60243;SDS011;46106;51.468;5.814;2022-08-19T09:27:38;48.95;;;22.20;;
60243;SDS011;46106;51.468;5.814;2022-08-19T09:30:08;39.55;;;21.20;;
60243;SDS011;46106;51.468;5.814;2022-08-19T09:32:40;48.40;;;24.52;;
60243;SDS011;46106;51.468;5.814;2022-08-19T09:35:07;59.45;;;25.48;;
60243;SDS011;46106;51.468;5.814;2022-08-19T09:37:34;48.92;;;25.48;;
60243;SDS011;46106;51.468;5.814;2022-08-19T09:40:03;46.60;;;24.65;;
60243;SDS011;46106;51.468;5.814;2022-08-19T09:42:33;52.70;;;26.73;;
60243;SDS011;46106;51.468;5.814;2022-08-19T09:44:59;54.63;;;30.10;;
60243;SDS011;46106;51.468;5.814;2022-08-19T09:47:24;60.97;;;30.20;;
60243;SDS011;46106;51.468;5.814;2022-08-19T09:49:52;56.28;;;25.88;;
60243;SDS011;46106;51.468;5.814;2022-08-19T09:52:17;61.95;;;29.70;;
60243;SDS011;46106;51.468;5.814;2022-08-19T09:54:43;62.63;;;31.67;;
60243;SDS011;46106;51.468;5.814;2022-08-19T09:57:10;63.13;;;33.08;;
60243;SDS011;46106;51.468;5.814;2022-08-19T09:59:38;62.53;;;27.70;;
60243;SDS011;46106;51.468;5.814;2022-08-19T10:02:05;57.22;;;32.63;;
60243;SDS011;46106;51.468;5.814;2022-08-19T10:04:30;65.90;;;32.38;;
60243;SDS011;46106;51.468;5.814;2022-08-19T10:07:14;77.70;;;35.30;;
60243;SDS011;46106;51.468;5.814;2022-08-19T10:09:40;66.63;;;34.35;;
60243;SDS011;46106;51.468;5.814;2022-08-19T10:12:08;73.13;;;37.35;;
60243;SDS011;46106;51.468;5.814;2022-08-19T10:14:35;73.20;;;39.15;;
60243;SDS011;46106;51.468;5.814;2022-08-19T10:17:02;77.95;;;38.40;;
60243;SDS011;46106;51.468;5.814;2022-08-19T10:19:28;90.82;;;39.38;;
60243;SDS011;46106;51.468;5.814;2022-08-19T10:24:28;75.15;;;37.15;;
60243;SDS011;46106;51.468;5.814;2022-08-19T10:26:56;87.47;;;39.97;;
60243;SDS011;46106;51.468;5.814;2022-08-19T10:29:22;83.00;;;37.80;;
60243;SDS011;46106;51.468;5.814;2022-08-19T10:31:48;71.75;;;34.05;;
60243;SDS011;46106;51.468;5.814;2022-08-19T10:34:13;75.53;;;36.10;;
60243;SDS011;46106;51.468;5.814;2022-08-19T10:36:39;95.30;;;41.45;;
60243;SDS011;46106;51.468;5.814;2022-08-19T10:39:07;91.72;;;39.85;;
60243;SDS011;46106;51.468;5.814;2022-08-19T10:41:35;74.07;;;36.10;;
60243;SDS011;46106;51.468;5.814;2022-08-19T10:44:05;82.63;;;35.63;;
60243;SDS011;46106;51.468;5.814;2022-08-19T10:46:38;89.50;;;40.00;;
60243;SDS011;46106;51.468;5.814;2022-08-19T10:49:09;103.55;;;41.75;;
60243;SDS011;46106;51.468;5.814;2022-08-19T10:51:37;82.72;;;38.92;;
60243;SDS011;46106;51.468;5.814;2022-08-19T10:54:22;94.40;;;39.92;;
60243;SDS011;46106;51.468;5.814;2022-08-19T10:56:47;105.07;;;43.10;;
60243;SDS011;46106;51.468;5.814;2022-08-19T10:59:22;102.07;;;40.42;;
60243;SDS011;46106;51.468;5.814;2022-08-19T11:01:51;83.20;;;35.70;;
60243;SDS011;46106;51.468;5.814;2022-08-19T11:04:17;85.78;;;36.45;;
60243;SDS011;46106;51.468;5.814;2022-08-19T11:06:47;84.72;;;36.33;;
60243;SDS011;46106;51.468;5.814;2022-08-19T11:09:14;95.05;;;36.20;;
60243;SDS011;46106;51.468;5.814;2022-08-19T11:11:41;78.32;;;30.67;;
60243;SDS011;46106;51.468;5.814;2022-08-19T11:14:10;75.45;;;32.47;;
60243;SDS011;46106;51.468;5.814;2022-08-19T11:16:39;71.65;;;30.63;;
60243;SDS011;46106;51.468;5.814;2022-08-19T11:19:10;76.30;;;32.50;;
60243;SDS011;46106;51.468;5.814;2022-08-19T11:21:40;65.60;;;26.85;;
60243;SDS011;46106;51.468;5.814;2022-08-19T11:24:12;70.75;;;28.40;;
60243;SDS011;46106;51.468;5.814;2022-08-19T11:26:41;75.05;;;31.45;;
60243;SDS011;46106;51.468;5.814;2022-08-19T11:29:10;74.30;;;30.75;;
60243;SDS011;46106;51.468;5.814;2022-08-19T11:31:39;76.97;;;31.30;;
60243;SDS011;46106;51.468;5.814;2022-08-19T11:34:07;76.05;;;31.08;;
60243;SDS011;46106;51.468;5.814;2022-08-19T11:36:44;66.15;;;27.88;;
60243;SDS011;46106;51.468;5.814;2022-08-19T11:39:12;58.22;;;25.35;;
60243;SDS011;46106;51.468;5.814;2022-08-19T11:41:42;60.88;;;25.00;;
60243;SDS011;46106;51.468;5.814;2022-08-19T11:44:07;65.90;;;26.92;;
60243;SDS011;46106;51.468;5.814;2022-08-19T11:46:34;59.22;;;24.42;;
60243;SDS011;46106;51.468;5.814;2022-08-19T11:49:03;68.50;;;24.83;;
60243;SDS011;46106;51.468;5.814;2022-08-19T11:51:34;64.43;;;25.73;;
60243;SDS011;46106;51.468;5.814;2022-08-19T11:54:04;59.47;;;23.85;;
60243;SDS011;46106;51.468;5.814;2022-08-19T11:56:31;62.80;;;24.23;;
60243;SDS011;46106;51.468;5.814;2022-08-19T11:58:57;57.95;;;24.90;;
60243;SDS011;46106;51.468;5.814;2022-08-19T12:01:23;58.35;;;24.77;;
60243;SDS011;46106;51.468;5.814;2022-08-19T12:03:51;55.15;;;22.30;;
60243;SDS011;46106;51.468;5.814;2022-08-19T12:06:21;54.58;;;21.73;;
60243;SDS011;46106;51.468;5.814;2022-08-19T12:08:50;55.35;;;22.77;;
60243;SDS011;46106;51.468;5.814;2022-08-19T12:11:17;53.35;;;21.17;;
60243;SDS011;46106;51.468;5.814;2022-08-19T12:13:43;47.17;;;22.17;;
60243;SDS011;46106;51.468;5.814;2022-08-19T12:16:14;51.80;;;23.17;;
60243;SDS011;46106;51.468;5.814;2022-08-19T12:18:42;61.53;;;24.58;;
60243;SDS011;46106;51.468;5.814;2022-08-19T12:21:13;64.28;;;24.27;;
60243;SDS011;46106;51.468;5.814;2022-08-19T12:23:42;57.92;;;22.25;;
60243;SDS011;46106;51.468;5.814;2022-08-19T12:26:11;58.65;;;25.60;;
60243;SDS011;46106;51.468;5.814;2022-08-19T12:28:42;54.40;;;25.02;;
60243;SDS011;46106;51.468;5.814;2022-08-19T12:31:08;59.95;;;26.23;;
60243;SDS011;46106;51.468;5.814;2022-08-19T12:33:42;67.97;;;28.65;;
60243;SDS011;46106;51.468;5.814;2022-08-19T12:36:11;69.07;;;30.92;;
60243;SDS011;46106;51.468;5.814;2022-08-19T12:38:39;63.22;;;30.83;;
60243;SDS011;46106;51.468;5.814;2022-08-19T12:41:05;58.83;;;29.23;;
60243;SDS011;46106;51.468;5.814;2022-08-19T12:43:36;60.33;;;27.67;;
60243;SDS011;46106;51.468;5.814;2022-08-19T12:46:05;76.13;;;32.03;;
60243;SDS011;46106;51.468;5.814;2022-08-19T12:48:31;78.40;;;33.70;;
60243;SDS011;46106;51.468;5.814;2022-08-19T12:51:12;76.50;;;33.13;;
60243;SDS011;46106;51.468;5.814;2022-08-19T12:53:40;77.95;;;33.40;;
60243;SDS011;46106;51.468;5.814;2022-08-19T12:56:07;78.07;;;34.45;;
60243;SDS011;46106;51.468;5.814;2022-08-19T12:58:33;74.90;;;33.40;;
60243;SDS011;46106;51.468;5.814;2022-08-19T13:01:15;74.38;;;33.42;;
60243;SDS011;46106;51.468;5.814;2022-08-19T13:03:42;78.03;;;33.72;;
60243;SDS011;46106;51.468;5.814;2022-08-19T13:06:12;71.78;;;31.65;;
60243;SDS011;46106;51.468;5.814;2022-08-19T13:08:38;73.68;;;31.42;;
60243;SDS011;46106;51.468;5.814;2022-08-19T13:11:08;70.40;;;31.13;;
60243;SDS011;46106;51.468;5.814;2022-08-19T13:16:03;62.60;;;27.20;;
60243;SDS011;46106;51.468;5.814;2022-08-19T13:18:29;64.90;;;31.10;;
60243;SDS011;46106;51.468;5.814;2022-08-19T13:20:54;78.95;;;34.40;;
60243;SDS011;46106;51.468;5.814;2022-08-19T13:23:21;74.70;;;33.17;;
60243;SDS011;46106;51.468;5.814;2022-08-19T13:25:55;71.60;;;32.50;;
60243;SDS011;46106;51.468;5.814;2022-08-19T13:28:26;65.00;;;32.40;;
60243;SDS011;46106;51.468;5.814;2022-08-19T13:30:53;70.72;;;32.50;;
60243;SDS011;46106;51.468;5.814;2022-08-19T13:33:39;65.10;;;30.48;;
60243;SDS011;46106;51.468;5.814;2022-08-19T13:36:05;60.25;;;27.15;;
60243;SDS011;46106;51.468;5.814;2022-08-19T13:38:36;62.63;;;26.80;;
60243;SDS011;46106;51.468;5.814;2022-08-19T13:41:04;64.38;;;28.10;;
60243;SDS011;46106;51.468;5.814;2022-08-19T13:43:33;63.05;;;26.95;;
60243;SDS011;46106;51.468;5.814;2022-08-19T13:46:00;62.85;;;27.00;;
60243;SDS011;46106;51.468;5.814;2022-08-19T13:48:40;63.65;;;28.92;;
60243;SDS011;46106;51.468;5.814;2022-08-19T13:51:08;69.15;;;30.65;;
60243;SDS011;46106;51.468;5.814;2022-08-19T13:53:38;69.72;;;30.65;;
60243;SDS011;46106;51.468;5.814;2022-08-19T13:56:08;65.07;;;29.30;;
60243;SDS011;46106;51.468;5.814;2022-08-19T13:58:42;60.85;;;27.98;;
60243;SDS011;46106;51.468;5.814;2022-08-19T14:01:09;69.38;;;27.88;;
60243;SDS011;46106;51.468;5.814;2022-08-19T14:03:35;69.75;;;29.33;;
60243;SDS011;46106;51.468;5.814;2022-08-19T14:06:05;56.90;;;26.05;;
60243;SDS011;46106;51.468;5.814;2022-08-19T14:08:30;57.92;;;26.35;;
60243;SDS011;46106;51.468;5.814;2022-08-19T14:10:58;54.63;;;25.15;;
60243;SDS011;46106;51.468;5.814;2022-08-19T14:13:25;59.65;;;25.17;;
60243;SDS011;46106;51.468;5.814;2022-08-19T14:15:55;52.08;;;23.50;;
60243;SDS011;46106;51.468;5.814;2022-08-19T14:18:21;51.03;;;23.50;;
60243;SDS011;46106;51.468;5.814;2022-08-19T14:20:47;55.85;;;23.20;;
60243;SDS011;46106;51.468;5.814;2022-08-19T14:23:14;44.85;;;21.15;;
60243;SDS011;46106;51.468;5.814;2022-08-19T14:25:42;43.85;;;19.65;;
60243;SDS011;46106;51.468;5.814;2022-08-19T14:28:09;40.47;;;18.85;;
60243;SDS011;46106;51.468;5.814;2022-08-19T14:30:36;30.73;;;14.20;;
60243;SDS011;46106;51.468;5.814;2022-08-19T14:33:08;28.85;;;13.07;;
60243;SDS011;46106;51.468;5.814;2022-08-19T14:35:34;30.75;;;13.23;;
60243;SDS011;46106;51.468;5.814;2022-08-19T14:38:00;38.83;;;13.70;;
60243;SDS011;46106;51.468;5.814;2022-08-19T14:40:28;28.83;;;13.90;;
60243;SDS011;46106;51.468;5.814;2022-08-19T14:42:58;31.95;;;14.50;;
60243;SDS011;46106;51.468;5.814;2022-08-19T14:45:29;30.73;;;14.45;;
60243;SDS011;46106;51.468;5.814;2022-08-19T14:48:01;31.05;;;15.48;;
60243;SDS011;46106;51.468;5.814;2022-08-19T14:50:30;33.45;;;14.55;;
60243;SDS011;46106;51.468;5.814;2022-08-19T14:53:03;33.15;;;14.60;;